Time;durP1;ratioP1;P1;durP2;ratioP2;P2;SDS_P1;SDS_P2;PMS_P1;PMS_P2;Temp;Humidity;BMP_temperature;BMP_pressure;BME280_temperature;BME280_humidity;BME280_pressure;Samples;Min_cycle;Max_cycle;Signal;HPM_P1;HPM_P2
2021/06/14 00:00:17;;;;;;;8.57;4.03;;;15.70;78.40;;;;;;5102727;28;20047;-68
2021/06/14 00:02:44;;;;;;;7.30;3.20;;;15.70;79.00;;;;;;5102390;28;20588;-68
2021/06/14 00:05:15;;;;;;;6.28;3.45;;;15.70;79.00;;;;;;5102464;28;20494;-68
2021/06/14 00:07:41;;;;;;;7.13;4.30;;;15.70;79.40;;;;;;5099438;28;20458;-68
2021/06/14 00:10:09;;;;;;;5.63;3.60;;;15.60;80.30;;;;;;5098205;28;20616;-68
2021/06/14 00:12:34;;;;;;;5.45;3.25;;;15.60;79.30;;;;;;5100268;28;20023;-68
2021/06/14 00:15:00;;;;;;;8.10;3.95;;;15.60;79.40;;;;;;5098209;28;20516;-68
2021/06/14 00:17:26;;;;;;;6.75;3.42;;;15.60;79.30;;;;;;5097075;28;20012;-68
2021/06/14 00:19:52;;;;;;;7.40;3.45;;;15.60;80.30;;;;;;5081015;28;20070;-68
2021/06/14 00:22:19;;;;;;;11.55;3.55;;;15.50;80.00;;;;;;5099204;28;20027;-68
2021/06/14 00:24:45;;;;;;;7.13;3.40;;;15.50;80.20;;;;;;5099613;28;20032;-68
2021/06/14 00:27:12;;;;;;;7.78;3.55;;;15.50;80.20;;;;;;5098861;28;20390;-68
2021/06/14 00:29:37;;;;;;;6.38;3.25;;;15.50;80.10;;;;;;5099546;28;20575;-68
2021/06/14 00:32:04;;;;;;;6.80;3.22;;;15.50;80.40;;;;;;5101689;28;20036;-68
2021/06/14 00:34:29;;;;;;;7.05;4.00;;;15.50;80.30;;;;;;5103303;28;20032;-68
2021/06/14 00:36:55;;;;;;;8.65;3.90;;;15.40;80.80;;;;;;5099865;28;20085;-68
2021/06/14 00:39:21;;;;;;;7.57;3.42;;;15.40;80.50;;;;;;5100104;28;20028;-68
2021/06/14 00:41:46;;;;;;;12.45;4.50;;;15.40;80.70;;;;;;5100374;28;20036;-68
2021/06/14 00:44:12;;;;;;;10.05;4.00;;;15.40;81.00;;;;;;5098772;28;20025;-68
2021/06/14 00:46:38;;;;;;;7.07;3.40;;;15.40;81.30;;;;;;5098554;28;20035;-68
2021/06/14 00:49:04;;;;;;;8.05;3.15;;;15.30;80.90;;;;;;5099790;28;20020;-68
2021/06/14 00:51:30;;;;;;;8.30;3.35;;;15.40;80.80;;;;;;5100514;28;20414;-68
2021/06/14 00:54:02;;;;;;;5.22;3.60;;;15.30;81.50;;;;;;5102430;28;20040;-69
2021/06/14 00:56:28;;;;;;;5.65;3.50;;;15.30;81.90;;;;;;5097319;28;20493;-68
2021/06/14 00:58:53;;;;;;;7.03;3.17;;;15.30;81.60;;;;;;5097639;28;20365;-67
2021/06/14 01:01:20;;;;;;;9.60;3.67;;;15.30;81.10;;;;;;5101735;28;20177;-68
2021/06/14 01:03:46;;;;;;;6.05;3.55;;;15.30;80.70;;;;;;5099985;28;20036;-68
2021/06/14 01:06:13;;;;;;;6.38;3.10;;;15.30;81.00;;;;;;5098311;28;20016;-68
2021/06/14 01:08:45;;;;;;;6.60;3.85;;;15.30;81.30;;;;;;5099594;28;20510;-67
2021/06/14 01:11:38;;;;;;;6.72;3.13;;;15.20;81.40;;;;;;5100553;28;20161;-68
2021/06/14 01:14:17;;;;;;;7.68;3.58;;;15.20;81.70;;;;;;5098674;28;20024;-68
2021/06/14 01:17:17;;;;;;;6.78;3.92;;;15.20;81.30;;;;;;5097148;28;20036;-68
2021/06/14 01:19:42;;;;;;;7.13;2.75;;;15.20;82.00;;;;;;5102288;28;20035;-68
2021/06/14 01:22:29;;;;;;;4.70;3.25;;;15.20;81.60;;;;;;5101387;28;20028;-67
2021/06/14 01:25:05;;;;;;;7.18;3.83;;;15.10;81.80;;;;;;5103437;28;20036;-68
2021/06/14 01:27:44;;;;;;;5.70;3.13;;;15.10;82.40;;;;;;5101565;28;20054;-67
2021/06/14 01:30:17;;;;;;;6.63;3.38;;;15.10;81.50;;;;;;5100566;28;20428;-68
2021/06/14 01:32:44;;;;;;;6.57;3.10;;;15.10;81.50;;;;;;5103683;28;20036;-67
2021/06/14 01:35:11;;;;;;;6.55;3.42;;;15.00;81.50;;;;;;5103513;28;20031;-68
2021/06/14 01:37:44;;;;;;;7.20;3.40;;;15.00;81.70;;;;;;5101071;28;20019;-68
2021/06/14 01:40:11;;;;;;;6.80;3.30;;;15.00;81.60;;;;;;5103250;28;20115;-68
2021/06/14 01:42:38;;;;;;;9.57;3.60;;;15.00;81.20;;;;;;5104276;28;20046;-67
2021/06/14 01:45:05;;;;;;;4.72;3.10;;;15.00;81.70;;;;;;5104106;28;20032;-69
2021/06/14 01:47:34;;;;;;;7.22;3.42;;;15.00;81.50;;;;;;5101824;28;20031;-68
2021/06/14 01:50:01;;;;;;;8.40;3.78;;;15.00;81.60;;;;;;5100947;28;20031;-68
2021/06/14 01:52:27;;;;;;;7.75;3.60;;;15.00;81.70;;;;;;5096813;28;20521;-67
2021/06/14 01:54:54;;;;;;;6.18;3.22;;;14.90;81.70;;;;;;5102466;28;20077;-68
2021/06/14 01:57:21;;;;;;;6.25;3.20;;;15.00;81.60;;;;;;5102796;28;20059;-67
2021/06/14 01:59:51;;;;;;;7.30;3.42;;;14.90;81.60;;;;;;5104466;28;20113;-68
2021/06/14 02:02:17;;;;;;;5.65;3.40;;;14.90;82.00;;;;;;5097830;28;20034;-68
2021/06/14 02:04:46;;;;;;;6.03;3.28;;;14.90;81.60;;;;;;5101609;28;20032;-68
2021/06/14 02:07:13;;;;;;;9.10;3.70;;;14.90;81.90;;;;;;5098631;28;20036;-68
2021/06/14 02:09:40;;;;;;;6.38;3.42;;;14.80;82.20;;;;;;5104327;28;20394;-68
2021/06/14 02:12:08;;;;;;;7.95;3.17;;;14.80;81.90;;;;;;5104330;28;20035;-67
2021/06/14 02:14:36;;;;;;;6.55;3.38;;;14.80;82.00;;;;;;5102473;28;20069;-68
2021/06/14 02:17:06;;;;;;;8.50;3.58;;;14.80;81.30;;;;;;5100667;28;20031;-68
2021/06/14 02:19:32;;;;;;;6.93;3.13;;;14.80;81.30;;;;;;5102820;28;20453;-68
2021/06/14 02:21:57;;;;;;;8.23;3.47;;;14.80;81.70;;;;;;5100118;28;20059;-68
2021/06/14 02:24:24;;;;;;;5.80;3.22;;;14.70;81.20;;;;;;5085165;28;20023;-68
2021/06/14 02:26:50;;;;;;;7.85;3.85;;;14.70;81.40;;;;;;5102482;28;20028;-68
2021/06/14 02:29:17;;;;;;;5.00;3.05;;;14.70;81.20;;;;;;5104429;28;20038;-67
2021/06/14 02:31:43;;;;;;;5.55;3.35;;;14.70;81.00;;;;;;5101846;28;20385;-68
2021/06/14 02:34:09;;;;;;;7.07;3.22;;;14.70;81.50;;;;;;5084205;28;20027;-68
2021/06/14 02:36:36;;;;;;;4.43;2.97;;;14.60;81.50;;;;;;5099633;28;20031;-68
2021/06/14 02:39:08;;;;;;;7.65;3.45;;;14.70;81.10;;;;;;5101165;28;20030;-68
2021/06/14 02:41:35;;;;;;;5.38;3.13;;;14.70;80.90;;;;;;5102893;28;20024;-68
2021/06/14 02:44:05;;;;;;;5.25;3.30;;;14.60;81.20;;;;;;5100991;28;20462;-68
2021/06/14 02:46:34;;;;;;;7.85;3.25;;;14.60;80.90;;;;;;5099645;28;20039;-68
2021/06/14 02:49:00;;;;;;;7.18;3.22;;;14.60;80.90;;;;;;5101894;28;20385;-68
2021/06/14 02:51:27;;;;;;;7.05;3.17;;;14.60;81.10;;;;;;5100608;28;20032;-68
2021/06/14 02:54:04;;;;;;;7.15;3.33;;;14.60;81.30;;;;;;5099136;28;20027;-68
2021/06/14 02:56:34;;;;;;;6.05;3.15;;;14.60;81.30;;;;;;5101891;28;20124;-68
2021/06/14 02:59:01;;;;;;;6.70;3.53;;;14.60;81.30;;;;;;5098854;28;20028;-68
2021/06/14 03:01:29;;;;;;;5.63;3.20;;;14.60;81.10;;;;;;5098535;28;20031;-68
2021/06/14 03:03:57;;;;;;;7.25;3.58;;;14.60;81.00;;;;;;5101553;28;20397;-68
2021/06/14 03:06:24;;;;;;;6.68;3.22;;;14.60;81.70;;;;;;5101229;28;20425;-68
2021/06/14 03:08:51;;;;;;;4.10;3.10;;;14.60;81.70;;;;;;5102196;28;20081;-68
2021/06/14 03:11:25;;;;;;;7.45;3.28;;;14.60;81.40;;;;;;5101961;28;20071;-68
2021/06/14 03:13:52;;;;;;;6.45;2.80;;;14.60;81.50;;;;;;5096846;28;20055;-68
2021/06/14 03:16:22;;;;;;;6.05;2.90;;;14.60;81.10;;;;;;5099216;28;20111;-68
2021/06/14 03:18:49;;;;;;;4.50;2.95;;;14.60;81.30;;;;;;5101560;28;20046;-68
2021/06/14 03:21:16;;;;;;;5.80;3.40;;;14.50;81.10;;;;;;5100819;28;20477;-68
2021/06/14 03:23:42;;;;;;;7.03;3.05;;;14.60;81.30;;;;;;5098911;28;20054;-68
2021/06/14 03:26:11;;;;;;;4.57;2.97;;;14.60;81.00;;;;;;5102353;28;20082;-68
2021/06/14 03:28:43;;;;;;;7.15;3.70;;;14.60;80.90;;;;;;5100423;28;20034;-68
2021/06/14 03:31:11;;;;;;;6.72;3.53;;;14.60;81.20;;;;;;5100289;28;20378;-67
2021/06/14 03:33:39;;;;;;;7.22;3.33;;;14.60;81.20;;;;;;5101055;28;20028;-68
2021/06/14 03:36:06;;;;;;;8.20;3.20;;;14.60;81.40;;;;;;5099802;28;20458;-68
2021/06/14 03:38:32;;;;;;;5.95;3.42;;;14.60;81.20;;;;;;5100317;28;20141;-68
2021/06/14 03:40:58;;;;;;;8.20;3.35;;;14.60;81.20;;;;;;5102187;28;20099;-68
2021/06/14 03:43:24;;;;;;;6.43;3.30;;;14.60;81.30;;;;;;5101770;28;20442;-68
2021/06/14 03:45:50;;;;;;;7.32;3.92;;;14.60;81.40;;;;;;5100189;28;20023;-68
2021/06/14 03:48:16;;;;;;;7.80;3.65;;;14.60;81.20;;;;;;5098704;28;20071;-68
2021/06/14 03:50:42;;;;;;;6.95;3.63;;;14.70;81.20;;;;;;5100124;28;20601;-68
2021/06/14 03:53:07;;;;;;;5.15;2.97;;;14.70;81.50;;;;;;5100422;28;20122;-68
2021/06/14 03:55:36;;;;;;;5.70;3.00;;;14.70;81.40;;;;;;5101093;28;20623;-68
2021/06/14 03:58:02;;;;;;;6.13;3.42;;;14.70;81.50;;;;;;5101034;28;20414;-68
2021/06/14 04:00:27;;;;;;;7.35;3.95;;;14.70;81.60;;;;;;5100700;28;20015;-69
2021/06/14 04:02:54;;;;;;;6.63;3.10;;;14.80;81.60;;;;;;5104551;28;20484;-68
2021/06/14 04:05:20;;;;;;;5.75;3.25;;;14.80;81.30;;;;;;5098232;28;20492;-69
2021/06/14 04:07:46;;;;;;;8.15;3.25;;;14.80;81.10;;;;;;5096993;28;20027;-68
2021/06/14 04:10:12;;;;;;;7.68;3.03;;;14.80;81.30;;;;;;5100103;28;20035;-68
2021/06/14 04:12:37;;;;;;;7.95;3.92;;;14.80;81.10;;;;;;5102254;28;20694;-68
2021/06/14 04:15:04;;;;;;;8.23;3.70;;;14.80;81.70;;;;;;5098306;28;20024;-68
2021/06/14 04:17:31;;;;;;;5.70;3.22;;;14.80;81.50;;;;;;5099058;28;20035;-69
2021/06/14 04:19:57;;;;;;;7.97;3.40;;;14.90;81.50;;;;;;5098435;28;20028;-67
2021/06/14 04:22:23;;;;;;;6.13;3.70;;;14.90;81.60;;;;;;5098452;28;20024;-68
2021/06/14 04:24:49;;;;;;;5.72;3.15;;;14.90;81.80;;;;;;5098886;28;20502;-68
2021/06/14 04:27:14;;;;;;;8.40;3.88;;;14.90;81.90;;;;;;5099667;28;20024;-69
2021/06/14 04:29:41;;;;;;;6.15;3.80;;;15.00;82.50;;;;;;5100852;28;20050;-68
2021/06/14 04:32:07;;;;;;;8.00;3.80;;;15.00;82.20;;;;;;5097635;28;20036;-68
2021/06/14 04:34:33;;;;;;;9.10;3.97;;;15.00;82.30;;;;;;5100864;28;20032;-68
2021/06/14 04:36:59;;;;;;;6.70;3.97;;;15.00;82.40;;;;;;5100296;28;20438;-68
2021/06/14 04:39:25;;;;;;;7.43;3.75;;;15.00;82.20;;;;;;5100099;28;20111;-68
2021/06/14 04:41:51;;;;;;;9.65;4.72;;;15.10;82.10;;;;;;5097441;28;20146;-68
2021/06/14 04:44:16;;;;;;;6.88;3.53;;;15.10;82.20;;;;;;5100703;28;20035;-68
2021/06/14 04:46:42;;;;;;;11.93;4.55;;;15.20;82.20;;;;;;5101368;28;20042;-69
2021/06/14 04:49:08;;;;;;;9.18;4.38;;;15.20;82.10;;;;;;5098759;28;20056;-70
2021/06/14 04:51:33;;;;;;;10.20;4.20;;;15.30;82.00;;;;;;5099398;28;20024;-71
2021/06/14 04:53:59;;;;;;;8.70;4.05;;;15.30;82.50;;;;;;5092272;28;20492;-71
2021/06/14 04:56:25;;;;;;;10.82;4.70;;;15.30;82.30;;;;;;5106668;28;20095;-71
2021/06/14 04:58:50;;;;;;;7.32;3.83;;;15.40;80.90;;;;;;5084153;28;20119;-68
2021/06/14 05:01:16;;;;;;;10.55;4.90;;;15.40;81.00;;;;;;5102795;28;20028;-69
2021/06/14 05:03:42;;;;;;;10.10;4.13;;;15.40;80.40;;;;;;5106545;28;20015;-74
2021/06/14 05:06:08;;;;;;;8.07;3.95;;;15.50;80.30;;;;;;5103316;28;20024;-69
2021/06/14 05:08:34;;;;;;;7.82;3.97;;;15.50;80.20;;;;;;5099818;28;20139;-69
2021/06/14 05:11:00;;;;;;;17.98;4.68;;;15.50;80.10;;;;;;5100460;28;20097;-69
2021/06/14 05:13:26;;;;;;;6.45;3.95;;;15.60;80.00;;;;;;5099222;28;20481;-69
2021/06/14 05:15:52;;;;;;;11.98;4.03;;;15.60;79.60;;;;;;5097690;28;20078;-69
2021/06/14 05:18:18;;;;;;;7.00;3.75;;;15.70;79.30;;;;;;5098124;28;20020;-69
2021/06/14 05:20:43;;;;;;;5.80;3.60;;;15.70;79.40;;;;;;5104310;28;20028;-69
2021/06/14 05:23:09;;;;;;;5.35;3.53;;;15.80;79.50;;;;;;5101503;28;20107;-70
2021/06/14 05:25:36;;;;;;;7.10;3.53;;;15.80;79.50;;;;;;5085704;28;20546;-68
2021/06/14 05:28:03;;;;;;;7.55;4.00;;;15.90;79.40;;;;;;5103126;28;20055;-70
2021/06/14 05:30:31;;;;;;;8.43;4.00;;;15.90;78.30;;;;;;5103613;28;20078;-70
2021/06/14 05:32:57;;;;;;;10.65;3.65;;;16.00;78.00;;;;;;5103069;28;20058;-69
2021/06/14 05:35:23;;;;;;;11.10;4.35;;;16.00;78.10;;;;;;5086693;28;20473;-70
2021/06/14 05:37:49;;;;;;;7.32;3.90;;;16.10;78.10;;;;;;5103926;28;20036;-70
2021/06/14 05:40:16;;;;;;;6.97;3.55;;;16.10;78.00;;;;;;5101684;28;20386;-71
2021/06/14 05:42:42;;;;;;;7.03;3.22;;;16.20;78.00;;;;;;5103049;28;20043;-70
2021/06/14 05:45:08;;;;;;;8.38;3.08;;;16.20;77.80;;;;;;5086165;28;20089;-70
2021/06/14 05:47:34;;;;;;;5.03;3.08;;;16.20;77.90;;;;;;5085725;28;20493;-70
2021/06/14 05:50:02;;;;;;;9.75;3.67;;;16.30;78.00;;;;;;5101191;28;20027;-67
2021/06/14 05:52:28;;;;;;;6.03;2.92;;;16.30;77.80;;;;;;5102633;28;20035;-68
2021/06/14 05:54:54;;;;;;;7.85;3.00;;;16.30;77.50;;;;;;5102505;28;20358;-67
2021/06/14 05:57:20;;;;;;;7.50;3.35;;;16.40;77.40;;;;;;5101404;28;20020;-67
2021/06/14 05:59:45;;;;;;;7.80;3.50;;;16.40;76.90;;;;;;5101192;28;20032;-68
2021/06/14 06:02:11;;;;;;;10.32;3.05;;;16.50;75.60;;;;;;5101110;28;20494;-68
2021/06/14 06:04:37;;;;;;;11.95;3.80;;;16.70;74.10;;;;;;5101831;28;20030;-69
2021/06/14 06:07:03;;;;;;;8.35;3.65;;;16.90;74.00;;;;;;5099823;28;20070;-69
2021/06/14 06:09:28;;;;;;;8.27;3.20;;;16.90;74.50;;;;;;5099477;28;20030;-68
2021/06/14 06:11:54;;;;;;;10.05;3.05;;;17.00;74.30;;;;;;5100721;28;20063;-69
2021/06/14 06:14:21;;;;;;;9.15;3.00;;;17.00;74.10;;;;;;5102592;28;20028;-68
2021/06/14 06:16:47;;;;;;;9.35;2.92;;;17.00;73.10;;;;;;5101283;28;20020;-69
2021/06/14 06:19:12;;;;;;;6.57;2.78;;;17.10;73.20;;;;;;5098448;28;20026;-68
2021/06/14 06:21:38;;;;;;;4.40;1.95;;;17.10;73.40;;;;;;5104528;28;20092;-69
2021/06/14 06:24:05;;;;;;;6.55;2.55;;;17.20;73.60;;;;;;5102275;28;20100;-68
2021/06/14 06:26:30;;;;;;;7.63;2.42;;;17.20;73.00;;;;;;5101466;28;20028;-69
2021/06/14 06:28:56;;;;;;;5.50;2.40;;;17.30;73.70;;;;;;5103521;28;20036;-69
2021/06/14 06:31:22;;;;;;;8.73;3.25;;;17.50;71.80;;;;;;5103490;28;20046;-69
2021/06/14 06:33:49;;;;;;;7.10;2.55;;;17.60;70.90;;;;;;5102050;28;20019;-68
2021/06/14 06:36:14;;;;;;;8.18;3.22;;;17.60;71.50;;;;;;5101743;28;20023;-69
2021/06/14 06:38:40;;;;;;;6.90;2.83;;;17.60;71.90;;;;;;5103046;28;20076;-68
2021/06/14 06:41:06;;;;;;;9.48;3.13;;;17.60;72.20;;;;;;5103434;28;20054;-68
2021/06/14 06:43:34;;;;;;;5.68;3.22;;;17.70;72.50;;;;;;5103772;28;20027;-68
2021/06/14 06:46:01;;;;;;;6.97;3.05;;;17.70;73.00;;;;;;5102340;28;20028;-68
2021/06/14 06:48:29;;;;;;;9.65;3.30;;;17.70;73.10;;;;;;5100729;28;20032;-69
2021/06/14 06:50:55;;;;;;;6.25;3.28;;;17.70;73.60;;;;;;5103073;28;20042;-68
2021/06/14 06:53:21;;;;;;;8.38;4.03;;;17.80;73.50;;;;;;5100972;28;20039;-68
2021/06/14 06:55:47;;;;;;;7.15;3.53;;;17.80;72.70;;;;;;5107194;28;20032;-68
2021/06/14 06:58:12;;;;;;;11.43;3.38;;;17.90;72.60;;;;;;5101314;28;20487;-68
2021/06/14 07:00:40;;;;;;;6.63;3.33;;;18.00;72.20;;;;;;5099400;28;20024;-69
2021/06/14 07:03:06;;;;;;;7.10;3.53;;;18.10;71.60;;;;;;5101433;28;20055;-69
2021/06/14 07:05:31;;;;;;;9.02;3.33;;;18.20;71.20;;;;;;5099100;28;20063;-70
2021/06/14 07:07:57;;;;;;;9.85;3.15;;;18.30;70.80;;;;;;5079848;28;20497;-70
2021/06/14 07:10:23;;;;;;;6.82;3.38;;;18.20;71.20;;;;;;5096907;28;20133;-70
2021/06/14 07:12:49;;;;;;;10.15;3.78;;;18.30;71.30;;;;;;5078115;28;20456;-69
2021/06/14 07:15:15;;;;;;;12.10;3.40;;;18.40;70.60;;;;;;5098561;28;20039;-68
2021/06/14 07:17:43;;;;;;;7.65;3.10;;;18.40;70.80;;;;;;5097953;28;20024;-68
2021/06/14 07:20:11;;;;;;;6.45;2.88;;;18.40;70.90;;;;;;5097332;28;20023;-68
2021/06/14 07:22:37;;;;;;;9.50;3.25;;;18.50;69.90;;;;;;5098262;28;20633;-68
2021/06/14 07:25:05;;;;;;;8.00;3.70;;;18.70;69.20;;;;;;5100806;28;20039;-67
2021/06/14 07:27:32;;;;;;;9.27;3.95;;;18.80;69.20;;;;;;5098812;28;20040;-68
2021/06/14 07:29:59;;;;;;;8.60;3.85;;;18.80;68.70;;;;;;5097968;28;20036;-69
2021/06/14 07:32:24;;;;;;;9.00;3.53;;;18.80;69.20;;;;;;5083031;28;20147;-68
2021/06/14 07:34:50;;;;;;;11.40;4.43;;;18.80;68.40;;;;;;5097308;28;20165;-68
2021/06/14 07:37:18;;;;;;;8.80;3.70;;;18.90;68.10;;;;;;5097095;28;20027;-68
2021/06/14 07:39:45;;;;;;;5.97;2.97;;;18.90;68.20;;;;;;5097022;28;20139;-68
2021/06/14 07:42:14;;;;;;;8.07;4.00;;;19.00;68.20;;;;;;5096301;28;20035;-68
2021/06/14 07:44:39;;;;;;;7.47;3.65;;;19.00;68.60;;;;;;5097114;28;20027;-68
2021/06/14 07:47:06;;;;;;;10.35;4.20;;;19.10;69.00;;;;;;5095333;28;20042;-68
2021/06/14 07:49:31;;;;;;;8.32;3.67;;;19.30;67.60;;;;;;5100707;28;20558;-68
2021/06/14 07:51:57;;;;;;;5.93;3.33;;;19.30;68.50;;;;;;5098614;28;20127;-69
2021/06/14 07:54:26;;;;;;;7.25;3.60;;;19.40;68.30;;;;;;5099587;28;20493;-68
2021/06/14 07:56:53;;;;;;;6.28;3.40;;;19.40;68.40;;;;;;5098001;28;20103;-68
2021/06/14 07:59:18;;;;;;;8.80;3.70;;;19.40;68.10;;;;;;5099879;28;20031;-69
2021/06/14 08:01:44;;;;;;;9.15;3.70;;;19.50;67.20;;;;;;5080017;28;20046;-68
2021/06/14 08:04:10;;;;;;;10.80;4.25;;;19.50;67.50;;;;;;5098642;28;20038;-68
2021/06/14 08:06:36;;;;;;;8.65;3.90;;;19.60;68.10;;;;;;5095090;28;20105;-68
2021/06/14 08:09:06;;;;;;;7.80;3.58;;;19.60;68.10;;;;;;5092347;28;20024;-68
2021/06/14 08:11:32;;;;;;;7.22;3.90;;;19.70;68.20;;;;;;5097332;28;20016;-68
2021/06/14 08:13:59;;;;;;;8.25;3.72;;;19.70;68.20;;;;;;5094951;28;20097;-68
2021/06/14 08:16:25;;;;;;;6.90;3.50;;;19.80;67.00;;;;;;5094012;28;20035;-68
2021/06/14 08:26:37;;;;;;;10.65;3.67;;;20.20;63.40;;;;;;5094316;28;20080;-68
2021/06/14 08:29:03;;;;;;;8.75;3.92;;;20.20;63.60;;;;;;5098417;28;20059;-67
2021/06/14 08:31:31;;;;;;;9.25;3.22;;;20.30;62.70;;;;;;5094129;28;20023;-68
2021/06/14 08:33:58;;;;;;;9.10;3.40;;;20.40;62.80;;;;;;5094208;28;20379;-68
2021/06/14 08:36:24;;;;;;;9.93;3.95;;;20.40;63.10;;;;;;5097656;28;20024;-67
2021/06/14 08:38:50;;;;;;;9.30;3.80;;;20.50;62.70;;;;;;5095765;28;20040;-73
2021/06/14 08:41:20;;;;;;;6.45;3.78;;;20.60;61.80;;;;;;5092760;28;20028;-72
2021/06/14 08:43:51;;;;;;;8.10;3.73;;;20.60;62.40;;;;;;5090641;28;20032;-72
2021/06/14 08:46:17;;;;;;;7.35;3.85;;;20.60;62.70;;;;;;5093829;28;20047;-73
2021/06/14 08:48:43;;;;;;;9.20;3.33;;;20.70;62.90;;;;;;5079242;28;20039;-73
2021/06/14 08:51:11;;;;;;;10.38;3.83;;;20.90;60.20;;;;;;5094994;28;20039;-72
2021/06/14 08:53:38;;;;;;;11.70;3.95;;;21.00;60.10;;;;;;5086693;28;20481;-72
2021/06/14 08:56:05;;;;;;;9.18;4.07;;;21.00;61.00;;;;;;5098179;28;20035;-72
2021/06/14 08:58:32;;;;;;;7.20;3.50;;;21.00;61.20;;;;;;5095570;28;20478;-73
2021/06/14 09:01:02;;;;;;;6.72;3.50;;;20.90;60.80;;;;;;5093894;28;20110;-72
2021/06/14 09:03:29;;;;;;;8.77;3.70;;;21.00;60.70;;;;;;5098879;28;20327;-72
2021/06/14 09:05:56;;;;;;;7.00;3.50;;;21.00;60.90;;;;;;5098135;28;20024;-75
2021/06/14 09:08:24;;;;;;;9.10;4.10;;;21.20;59.50;;;;;;5080321;28;20028;-73
2021/06/14 09:10:52;;;;;;;8.75;4.10;;;21.30;59.40;;;;;;5096427;28;20043;-72
2021/06/14 09:13:23;;;;;;;7.28;3.30;;;21.40;59.50;;;;;;5096399;28;20077;-72
2021/06/14 09:16:06;;;;;;;8.20;4.03;;;21.40;60.10;;;;;;5094938;28;20022;-73
2021/06/14 09:18:33;;;;;;;8.98;3.47;;;21.40;60.20;;;;;;5097880;28;20023;-73
2021/06/14 09:21:00;;;;;;;6.22;3.50;;;21.30;59.80;;;;;;5098812;28;20027;-73
2021/06/14 09:23:40;;;;;;;10.20;3.50;;;21.30;60.70;;;;;;5080276;28;20424;-72
2021/06/14 09:26:07;;;;;;;9.52;3.65;;;21.40;61.00;;;;;;5096840;28;20081;-73
2021/06/14 09:28:33;;;;;;;5.35;3.20;;;21.50;60.70;;;;;;5097624;28;20043;-72
2021/06/14 09:31:11;;;;;;;9.80;3.88;;;21.40;60.40;;;;;;5079258;28;20035;-72
2021/06/14 09:33:43;;;;;;;7.90;3.60;;;21.50;60.70;;;;;;5096298;28;20107;-72
2021/06/14 09:36:09;;;;;;;11.40;3.75;;;21.50;60.00;;;;;;5092637;28;20041;-72
2021/06/14 09:38:35;;;;;;;9.48;3.72;;;21.50;59.60;;;;;;5082125;28;20055;-72
2021/06/14 09:41:10;;;;;;;7.35;4.00;;;21.70;58.50;;;;;;5099645;28;20052;-73
2021/06/14 09:43:38;;;;;;;10.57;3.85;;;21.70;59.30;;;;;;5099286;28;20402;-72
2021/06/14 09:46:18;;;;;;;9.48;3.80;;;21.80;59.00;;;;;;5099480;28;20161;-72
2021/06/14 09:48:43;;;;;;;10.95;3.83;;;21.80;59.10;;;;;;5099663;28;20106;-72
2021/06/14 09:51:09;;;;;;;7.68;3.70;;;21.80;59.50;;;;;;5097859;28;20073;-72
2021/06/14 09:53:53;;;;;;;7.82;3.42;;;21.80;59.40;;;;;;5094876;28;20032;-73
2021/06/14 09:56:21;;;;;;;8.55;3.55;;;21.90;59.60;;;;;;5099182;28;20028;-72
2021/06/14 09:58:49;;;;;;;5.25;3.17;;;21.80;59.90;;;;;;5101287;28;20431;-73
2021/06/14 10:01:29;;;;;;;7.18;3.70;;;21.80;60.30;;;;;;5097008;28;20482;-72
2021/06/14 10:03:57;;;;;;;11.52;4.10;;;22.00;58.40;;;;;;5098575;28;20391;-73
2021/06/14 10:06:33;;;;;;;8.88;3.42;;;22.00;59.60;;;;;;5100589;28;20036;-73
2021/06/14 10:09:00;;;;;;;6.68;3.25;;;22.00;59.70;;;;;;5099971;28;20355;-73
2021/06/14 10:11:35;;;;;;;5.97;3.53;;;22.00;59.40;;;;;;5101598;28;20023;-73
2021/06/14 10:14:21;;;;;;;7.93;3.33;;;22.00;59.60;;;;;;5098623;28;20460;-74
2021/06/14 10:16:49;;;;;;;6.30;3.00;;;22.10;59.80;;;;;;5082382;28;20095;-73
2021/06/14 10:19:17;;;;;;;6.80;3.38;;;22.10;59.90;;;;;;5080986;28;20035;-71
2021/06/14 10:21:45;;;;;;;9.73;3.50;;;22.00;60.00;;;;;;5100966;28;20024;-72
2021/06/14 10:24:13;;;;;;;8.70;3.17;;;22.20;59.00;;;;;;5099698;28;20135;-72
2021/06/14 10:26:42;;;;;;;8.18;3.47;;;22.20;59.50;;;;;;5099953;28;20023;-75
2021/06/14 10:29:12;;;;;;;8.18;3.40;;;22.30;58.40;;;;;;5098895;28;20024;-74
2021/06/14 10:31:39;;;;;;;9.32;3.42;;;22.30;58.50;;;;;;5099930;28;20024;-71
2021/06/14 10:34:05;;;;;;;7.07;3.47;;;22.30;58.40;;;;;;5095021;28;20024;-70
2021/06/14 10:36:31;;;;;;;6.40;3.38;;;22.40;59.00;;;;;;5092339;28;20082;-70
2021/06/14 10:38:59;;;;;;;9.98;3.58;;;22.50;58.10;;;;;;5093925;28;20036;-70
2021/06/14 10:41:25;;;;;;;7.65;3.08;;;22.50;57.60;;;;;;5100105;28;20120;-70
2021/06/14 10:43:53;;;;;;;8.38;3.70;;;22.50;57.90;;;;;;5097567;28;20459;-70
2021/06/14 10:46:22;;;;;;;9.00;3.65;;;22.50;58.20;;;;;;5098730;28;20040;-68
2021/06/14 10:49:02;;;;;;;6.10;3.15;;;22.50;57.30;;;;;;5095823;28;20032;-69
2021/06/14 10:51:32;;;;;;;6.28;3.63;;;22.40;56.90;;;;;;5098613;28;20036;-67
2021/06/14 10:54:15;;;;;;;5.57;2.90;;;22.40;56.00;;;;;;5093169;28;20067;-69
2021/06/14 10:56:41;;;;;;;6.25;3.00;;;22.50;57.50;;;;;;5097436;28;20035;-69
2021/06/14 10:59:09;;;;;;;5.88;3.15;;;22.60;57.30;;;;;;5100191;28;20020;-69
2021/06/14 11:01:48;;;;;;;5.30;3.60;;;22.60;57.50;;;;;;5098935;28;20038;-72
2021/06/14 11:04:29;;;;;;;7.53;3.35;;;22.60;57.60;;;;;;5093661;28;20068;-69
2021/06/14 11:06:57;;;;;;;10.57;3.92;;;22.60;57.00;;;;;;5100497;28;20028;-70
2021/06/14 11:09:24;;;;;;;6.15;3.00;;;22.70;56.00;;;;;;5096299;28;20056;-70
2021/06/14 11:11:55;;;;;;;7.53;3.70;;;22.70;56.80;;;;;;5102626;28;20024;-70
2021/06/14 11:14:44;;;;;;;7.88;3.30;;;22.90;58.30;;;;;;5100559;28;20016;-69
2021/06/14 11:17:16;;;;;;;6.78;3.28;;;23.00;59.00;;;;;;5099292;28;20034;-69
2021/06/14 11:19:43;;;;;;;5.95;3.10;;;23.40;58.30;;;;;;5080255;28;20449;-70
2021/06/14 11:22:09;;;;;;;8.57;3.08;;;23.90;55.70;;;;;;5098032;28;20059;-71
2021/06/14 11:24:37;;;;;;;8.02;3.30;;;24.50;57.50;;;;;;5099854;28;20067;-71
2021/06/14 11:27:09;;;;;;;5.07;2.60;;;25.50;50.30;;;;;;5095307;28;20482;-72
2021/06/14 11:29:43;;;;;;;6.47;3.30;;;26.80;51.00;;;;;;5098733;28;20499;-71
2021/06/14 11:32:10;;;;;;;4.68;3.33;;;28.70;45.30;;;;;;5097589;28;20097;-70
2021/06/14 11:34:40;;;;;;;6.18;3.42;;;30.70;42.70;;;;;;5097661;28;20039;-70
2021/06/14 11:37:07;;;;;;;10.35;4.30;;;32.40;40.70;;;;;;5097462;28;20417;-71
2021/06/14 11:39:33;;;;;;;6.18;3.15;;;33.30;38.70;;;;;;5097216;28;20022;-70
2021/06/14 11:42:09;;;;;;;5.47;3.67;;;34.20;34.90;;;;;;5098451;28;20024;-70
2021/06/14 11:44:35;;;;;;;4.13;3.10;;;34.50;34.40;;;;;;5101299;28;20085;-70
2021/06/14 11:47:19;;;;;;;3.70;3.03;;;35.00;33.60;;;;;;5099296;28;20031;-70
2021/06/14 11:49:47;;;;;;;4.47;3.17;;;35.20;33.50;;;;;;5098890;28;20034;-70
2021/06/14 11:52:20;;;;;;;6.22;2.97;;;35.30;33.70;;;;;;5080665;28;20039;-70
2021/06/14 11:54:49;;;;;;;6.00;3.72;;;35.50;33.30;;;;;;5088576;28;20063;-70
2021/06/14 11:57:15;;;;;;;6.07;3.80;;;35.30;33.10;;;;;;5105415;28;20450;-70
2021/06/14 11:59:41;;;;;;;7.45;3.42;;;35.30;32.80;;;;;;5095570;28;20055;-74
2021/06/14 12:02:21;;;;;;;6.65;3.55;;;35.40;32.30;;;;;;5079382;28;20492;-73
2021/06/14 12:04:53;;;;;;;13.00;4.07;;;35.70;32.70;;;;;;5093367;28;20031;-74
2021/06/14 12:07:32;;;;;;;6.90;3.15;;;35.50;31.80;;;;;;5073475;28;20020;-73
2021/06/14 12:10:15;;;;;;;5.80;3.33;;;35.50;31.30;;;;;;5087009;28;20060;-74
2021/06/14 12:12:45;;;;;;;5.82;3.10;;;35.40;32.60;;;;;;5096447;28;20037;-74
2021/06/14 12:15:12;;;;;;;6.70;3.40;;;35.20;32.90;;;;;;5093764;28;20716;-74
2021/06/14 12:17:42;;;;;;;3.60;2.92;;;34.80;33.30;;;;;;5095746;28;20016;-73
2021/06/14 12:20:08;;;;;;;4.60;2.83;;;34.40;33.40;;;;;;5097606;28;20077;-73
2021/06/14 12:22:36;;;;;;;4.72;3.75;;;34.30;32.40;;;;;;5095163;28;20023;-73
2021/06/14 12:25:05;;;;;;;9.02;3.42;;;33.80;33.40;;;;;;5090782;28;20059;-74
2021/06/14 12:27:31;;;;;;;4.97;3.20;;;33.60;33.10;;;;;;5097029;28;20110;-73
2021/06/14 12:29:59;;;;;;;3.75;2.47;;;33.00;35.20;;;;;;5092472;28;20127;-74
2021/06/14 12:32:27;;;;;;;5.80;3.38;;;32.80;36.50;;;;;;5097163;28;20039;-74
2021/06/14 12:35:01;;;;;;;6.95;3.20;;;32.80;36.00;;;;;;5077363;28;20092;-74
2021/06/14 12:37:27;;;;;;;5.82;3.38;;;33.00;36.50;;;;;;5092433;28;20028;-74
2021/06/14 12:40:11;;;;;;;6.93;3.10;;;33.30;37.00;;;;;;5092145;28;20086;-73
2021/06/14 12:42:38;;;;;;;3.90;2.63;;;33.50;35.00;;;;;;5086840;28;20020;-74
2021/06/14 12:45:11;;;;;;;4.30;3.25;;;33.70;35.20;;;;;;5090118;28;20039;-74
2021/06/14 12:47:43;;;;;;;5.57;3.08;;;33.80;33.90;;;;;;5096649;28;20073;-74
2021/06/14 12:50:13;;;;;;;6.05;3.20;;;34.20;35.10;;;;;;5097086;28;20027;-74
2021/06/14 12:56:26;;;;;;;3.78;2.47;;;34.20;33.50;;;;;;5092192;28;20127;-73
2021/06/14 12:58:52;;;;;;;5.57;2.95;;;33.00;34.50;;;;;;5095801;28;20016;-75
2021/06/14 13:01:20;;;;;;;4.25;2.78;;;32.20;34.80;;;;;;5095458;28;20080;-75